Terminal Aerodrome Forecast
Issued by NWS Birmingham, AL

Home | Current Version | Previous Version | Text Only | Print | Product List | Glossary On
Versions: 1 2 3 4 5 6 7 8 9 10 11 12 13 14 15 16 17 18 19 20 21 22 23 24 25 26 27 28 29 30
947
FTUS44 KBMX 231317 AAA
TAFBHM
TAF AMD
KBHM 231317Z 2313/2412 30020G30KT P6SM -DZ OVC015
     FM231800 31017G25KT P6SM BKN020
     FM240000 31012KT P6SM OVC010
     FM240900 32004KT P6SM OVC010=

USA.gov is the U.S. government's official web portal to all federal, state and local government web resources and services.